Time;durP1;ratioP1;P1;durP2;ratioP2;P2;SDS_P1;SDS_P2;PMS_P1;PMS_P2;Temp;Humidity;BMP_temperature;BMP_pressure;BME280_temperature;BME280_humidity;BME280_pressure;Samples;Min_cycle;Max_cycle;Signal;HPM_P1;HPM_P2
2023/04/20 00:00:28;;;;;;;;;;;;;;;;;;1021934;28;2986;-52
2023/04/20 00:01:18;;;;;;;;;;;;;;;;;;1026195;28;4056;-53
2023/04/20 00:01:49;;;;;;;;;;;;;;;;;;1025614;28;3870;-56
2023/04/20 00:02:20;;;;;;;;;;;;;;;;;;1029678;28;2984;-54
2023/04/20 00:02:50;;;;;;;;;;;;;;;;;;1029265;28;4042;-54
2023/04/20 00:03:21;;;;;;;;;;;;;;;;;;1030889;28;2914;-54
2023/04/20 00:03:51;;;;;;;;;;;;;;;;;;1029125;28;4172;-55
2023/04/20 00:04:21;;;;;;;;;;;;;;;;;;1028999;28;3093;-56
2023/04/20 00:04:52;;;;;;;;;;;;;;;;;;1025305;28;4067;-56
2023/04/20 00:05:22;;;;;;;;;;;;;;;;;;1026147;28;2982;-54
2023/04/20 00:05:53;;;;;;;;;;;;;;;;;;1024349;28;3966;-56
2023/04/20 00:06:28;;;;;;;;;;;;;;;;;;1024777;28;3667;-52
2023/04/20 00:06:58;;;;;;;;;;;;;;;;;;1025077;28;4041;-57
2023/04/20 00:07:28;;;;;;;;;;;;;;;;;;1025633;28;3069;-52
2023/04/20 00:08:00;;;;;;;;;;;;;;;;;;1028078;28;4249;-56
2023/04/20 00:08:30;;;;;;;;;;;;;;;;;;1028944;28;1714;-54
2023/04/20 00:09:00;;;;;;;;;;;;;;;;;;1026714;28;3983;-54
2023/04/20 00:09:31;;;;;;;;;;;;;;;;;;1028889;28;3945;-53
2023/04/20 00:10:01;;;;;;;;;;;;;;;;;;1028584;28;3263;-54
2023/04/20 00:10:32;;;;;;;;;;;;;;;;;;1027924;28;4129;-53
2023/04/20 00:11:02;;;;;;;;;;;;;;;;;;1027635;28;2986;-50
2023/04/20 00:11:32;;;;;;;;;;;;;;;;;;1026917;28;4001;-51
2023/04/20 00:12:03;;;;;;;;;;;;;;;;;;1028850;28;3178;-56
2023/04/20 00:12:33;;;;;;;;;;;;;;;;;;1028511;28;4089;-55
2023/04/20 00:13:03;;;;;;;;;;;;;;;;;;1029331;28;3058;-57
2023/04/20 00:13:33;;;;;;;;;;;;;;;;;;1027250;28;4081;-56
2023/04/20 00:14:04;;;;;;;;;;;;;;;;;;1030180;28;3522;-52
2023/04/20 00:14:34;;;;;;;;;;;;;;;;;;1028864;28;4098;-56
2023/04/20 00:15:05;;;;;;;;;;;;;;;;;;1029489;28;3260;-56
2023/04/20 00:15:35;;;;;;;;;;;;;;;;;;1027854;28;4015;-53
2023/04/20 00:16:05;;;;;;;;;;;;;;;;;;1030794;28;3340;-54
2023/04/20 00:16:35;;;;;;;;;;;;;;;;;;1029783;28;3907;-57
2023/04/20 00:17:06;;;;;;;;;;;;;;;;;;1030414;28;2938;-52
2023/04/20 00:17:38;;;;;;;;;;;;;;;;;;1027551;28;4079;-55
2023/04/20 00:18:08;;;;;;;;;;;;;;;;;;1032820;28;2989;-50
2023/04/20 00:18:39;;;;;;;;;;;;;;;;;;1024894;28;4110;-54
2023/04/20 00:19:09;;;;;;;;;;;;;;;;;;1027073;28;2077;-52
2023/04/20 00:19:40;;;;;;;;;;;;;;;;;;1025511;28;4194;-52
2023/04/20 00:20:11;;;;;;;;;;;;;;;;;;1026606;28;2017;-55
2023/04/20 00:20:42;;;;;;;;;;;;;;;;;;1029297;28;3987;-54
2023/04/20 00:21:12;;;;;;;;;;;;;;;;;;1030508;28;2913;-54
2023/04/20 00:21:42;;;;;;;;;;;;;;;;;;1027765;28;3960;-49
2023/04/20 00:22:12;;;;;;;;;;;;;;;;;;1028328;28;3097;-57
2023/04/20 00:22:43;;;;;;;;;;;;;;;;;;1028136;28;3799;-54
2023/04/20 00:23:13;;;;;;;;;;;;;;;;;;1026634;28;3086;-50
2023/04/20 00:23:43;;;;;;;;;;;;;;;;;;1027324;28;4049;-54
2023/04/20 00:24:14;;;;;;;;;;;;;;;;;;1028677;28;3287;-54
2023/04/20 00:24:44;;;;;;;;;;;;;;;;;;1029720;28;4141;-53
2023/04/20 00:25:14;;;;;;;;;;;;;;;;;;1028234;28;2986;-52
2023/04/20 00:25:45;;;;;;;;;;;;;;;;;;1029756;28;3938;-58
2023/04/20 00:26:15;;;;;;;;;;;;;;;;;;1030246;28;2791;-54
2023/04/20 00:26:46;;;;;;;;;;;;;;;;;;1030431;28;4171;-55
2023/04/20 00:27:16;;;;;;;;;;;;;;;;;;1028694;28;3770;-56
2023/04/20 00:27:46;;;;;;;;;;;;;;;;;;1029802;28;3888;-57
2023/04/20 00:28:17;;;;;;;;;;;;;;;;;;1030590;28;1679;-54
2023/04/20 00:28:49;;;;;;;;;;;;;;;;;;1028718;28;4020;-58
2023/04/20 00:29:19;;;;;;;;;;;;;;;;;;1029955;28;3125;-53
2023/04/20 00:29:49;;;;;;;;;;;;;;;;;;1028904;28;4239;-51
2023/04/20 00:30:19;;;;;;;;;;;;;;;;;;1026542;28;3364;-52
2023/04/20 00:30:50;;;;;;;;;;;;;;;;;;1030175;28;3891;-56
2023/04/20 00:31:20;;;;;;;;;;;;;;;;;;1030307;28;2838;-56
2023/04/20 00:31:50;;;;;;;;;;;;;;;;;;1028302;28;4071;-54
2023/04/20 00:32:20;;;;;;;;;;;;;;;;;;1027522;28;3506;-55
2023/04/20 00:32:51;;;;;;;;;;;;;;;;;;1026831;28;4048;-57
2023/04/20 00:33:21;;;;;;;;;;;;;;;;;;1027115;28;3249;-53
2023/04/20 00:33:51;;;;;;;;;;;;;;;;;;1028051;28;4092;-52
2023/04/20 00:34:22;;;;;;;;;;;;;;;;;;1028065;28;3087;-59
2023/04/20 00:34:52;;;;;;;;;;;;;;;;;;1027417;28;4007;-52
2023/04/20 00:35:22;;;;;;;;;;;;;;;;;;1027805;28;3049;-52
2023/04/20 00:35:52;;;;;;;;;;;;;;;;;;1025488;28;3877;-59
2023/04/20 00:36:23;;;;;;;;;;;;;;;;;;1026195;28;2991;-56
2023/04/20 00:36:53;;;;;;;;;;;;;;;;;;1022169;28;3969;-56
2023/04/20 00:37:24;;;;;;;;;;;;;;;;;;1026315;28;2875;-54
2023/04/20 00:37:54;;;;;;;;;;;;;;;;;;1027389;28;3832;-54
2023/04/20 00:38:26;;;;;;;;;;;;;;;;;;1028504;28;1617;-52
2023/04/20 00:38:56;;;;;;;;;;;;;;;;;;1028642;28;3888;-56
2023/04/20 00:39:27;;;;;;;;;;;;;;;;;;1030027;28;2822;-53
2023/04/20 00:39:57;;;;;;;;;;;;;;;;;;1029790;28;3999;-52
2023/04/20 00:40:27;;;;;;;;;;;;;;;;;;1029134;28;3134;-53
2023/04/20 00:40:58;;;;;;;;;;;;;;;;;;1028220;28;3843;-52
2023/04/20 00:41:28;;;;;;;;;;;;;;;;;;1028795;28;3026;-52
2023/04/20 00:42:05;;;;;;;;;;;;;;;;;;1030387;28;3960;-51
2023/04/20 00:42:36;;;;;;;;;;;;;;;;;;1029496;28;4137;-59
2023/04/20 00:43:10;;;;;;;;;;;;;;;;;;1028135;28;2975;-57
2023/04/20 00:43:52;;;;;;;;;;;;;;;;;;1027664;28;3865;-55
2023/04/20 00:44:23;;;;;;;;;;;;;;;;;;1027075;28;3712;-58
2023/04/20 00:44:53;;;;;;;;;;;;;;;;;;1028934;28;3858;-54
2023/04/20 00:45:23;;;;;;;;;;;;;;;;;;1029477;28;2883;-55
2023/04/20 00:45:54;;;;;;;;;;;;;;;;;;1030543;28;4067;-52
2023/04/20 00:46:24;;;;;;;;;;;;;;;;;;1029175;28;2922;-55
2023/04/20 00:46:56;;;;;;;;;;;;;;;;;;1024737;28;4729;-54
2023/04/20 00:47:26;;;;;;;;;;;;;;;;;;1025432;28;2872;-55
2023/04/20 00:47:56;;;;;;;;;;;;;;;;;;1026338;28;3928;-54
2023/04/20 00:48:26;;;;;;;;;;;;;;;;;;1023680;28;3085;-57
2023/04/20 00:48:57;;;;;;;;;;;;;;;;;;1026773;28;3812;-52
2023/04/20 00:49:31;;;;;;;;;;;;;;;;;;1028612;28;2677;-58
2023/04/20 00:50:01;;;;;;;;;;;;;;;;;;1030067;28;3922;-54
2023/04/20 00:50:36;;;;;;;;;;;;;;;;;;1028931;28;4077;-58
2023/04/20 00:51:06;;;;;;;;;;;;;;;;;;1028347;28;3200;-52
2023/04/20 00:51:37;;;;;;;;;;;;;;;;;;1027853;28;4055;-52
2023/04/20 00:52:07;;;;;;;;;;;;;;;;;;1028000;28;3053;-54
2023/04/20 00:52:38;;;;;;;;;;;;;;;;;;1027907;28;3905;-54
2023/04/20 00:53:09;;;;;;;;;;;;;;;;;;1027368;28;2943;-52
2023/04/20 00:53:40;;;;;;;;;;;;;;;;;;1030270;28;4044;-56
2023/04/20 00:54:10;;;;;;;;;;;;;;;;;;1027322;28;3092;-55
2023/04/20 00:54:41;;;;;;;;;;;;;;;;;;1028149;28;3931;-54
2023/04/20 00:55:11;;;;;;;;;;;;;;;;;;1027862;28;1810;-54
2023/04/20 00:55:42;;;;;;;;;;;;;;;;;;1027507;28;3842;-53
2023/04/20 00:56:13;;;;;;;;;;;;;;;;;;1023219;28;3034;-50
2023/04/20 00:56:43;;;;;;;;;;;;;;;;;;1025482;28;3902;-55
2023/04/20 00:57:14;;;;;;;;;;;;;;;;;;1026084;28;2088;-58
2023/04/20 00:57:44;;;;;;;;;;;;;;;;;;1026192;28;3956;-53
2023/04/20 00:58:14;;;;;;;;;;;;;;;;;;1028286;28;3278;-52
2023/04/20 00:58:45;;;;;;;;;;;;;;;;;;1028430;28;3836;-55
2023/04/20 00:59:15;;;;;;;;;;;;;;;;;;1031214;28;1795;-54
2023/04/20 00:59:45;;;;;;;;;;;;;;;;;;1028473;28;3973;-58
2023/04/20 01:00:16;;;;;;;;;;;;;;;;;;1030100;28;3099;-58
2023/04/20 01:00:46;;;;;;;;;;;;;;;;;;1027738;28;4391;-55
2023/04/20 01:01:17;;;;;;;;;;;;;;;;;;1028379;28;2755;-57
2023/04/20 01:01:47;;;;;;;;;;;;;;;;;;1028195;28;3825;-55
2023/04/20 01:02:17;;;;;;;;;;;;;;;;;;1028184;28;3083;-53
2023/04/20 01:02:48;;;;;;;;;;;;;;;;;;1027567;28;4091;-56
2023/04/20 01:03:18;;;;;;;;;;;;;;;;;;1027276;28;3647;-54
2023/04/20 01:03:48;;;;;;;;;;;;;;;;;;1024038;28;4095;-56
2023/04/20 01:04:19;;;;;;;;;;;;;;;;;;1025122;28;4524;-50
2023/04/20 01:04:49;;;;;;;;;;;;;;;;;;1026979;28;4144;-55
2023/04/20 01:05:19;;;;;;;;;;;;;;;;;;1026068;28;2772;-55
2023/04/20 01:05:50;;;;;;;;;;;;;;;;;;1027599;28;4135;-56
2023/04/20 01:06:20;;;;;;;;;;;;;;;;;;1026723;28;2608;-57
2023/04/20 01:06:51;;;;;;;;;;;;;;;;;;1027603;28;4000;-52
2023/04/20 01:07:21;;;;;;;;;;;;;;;;;;1028811;28;3124;-50
2023/04/20 01:07:52;;;;;;;;;;;;;;;;;;1028768;28;3776;-55
2023/04/20 01:08:26;;;;;;;;;;;;;;;;;;1027941;28;1919;-52
2023/04/20 01:08:56;;;;;;;;;;;;;;;;;;1027974;28;3739;-55
2023/04/20 01:09:27;;;;;;;;;;;;;;;;;;1028483;28;1756;-55
2023/04/20 01:09:58;;;;;;;;;;;;;;;;;;1029267;28;3782;-49
2023/04/20 01:10:28;;;;;;;;;;;;;;;;;;1030935;28;1456;-51
2023/04/20 01:10:59;;;;;;;;;;;;;;;;;;1030260;28;4011;-51
2023/04/20 01:11:29;;;;;;;;;;;;;;;;;;1030131;28;2766;-50
2023/04/20 01:12:00;;;;;;;;;;;;;;;;;;1027775;28;3922;-50
2023/04/20 01:12:30;;;;;;;;;;;;;;;;;;1029759;28;3270;-56
2023/04/20 01:13:02;;;;;;;;;;;;;;;;;;1029907;28;4037;-52
2023/04/20 01:13:32;;;;;;;;;;;;;;;;;;1029349;28;4085;-53
2023/04/20 01:14:02;;;;;;;;;;;;;;;;;;1030370;28;3169;-56
2023/04/20 01:14:33;;;;;;;;;;;;;;;;;;1029088;28;4067;-54
2023/04/20 01:15:04;;;;;;;;;;;;;;;;;;1026712;28;3121;-54
2023/04/20 01:15:35;;;;;;;;;;;;;;;;;;1028298;28;4034;-53
2023/04/20 01:16:05;;;;;;;;;;;;;;;;;;1028040;28;1640;-55
2023/04/20 01:16:36;;;;;;;;;;;;;;;;;;1027675;28;4073;-55
2023/04/20 01:17:06;;;;;;;;;;;;;;;;;;1031166;28;1912;-53
2023/04/20 01:17:38;;;;;;;;;;;;;;;;;;1028890;28;4128;-52
2023/04/20 01:18:08;;;;;;;;;;;;;;;;;;1028923;28;2972;-49
2023/04/20 01:18:43;;;;;;;;;;;;;;;;;;1027599;28;4030;-52
2023/04/20 01:19:13;;;;;;;;;;;;;;;;;;1029902;28;1885;-55
2023/04/20 01:19:44;;;;;;;;;;;;;;;;;;1029698;28;4063;-55
2023/04/20 01:20:14;;;;;;;;;;;;;;;;;;1030341;28;2141;-54
2023/04/20 01:20:45;;;;;;;;;;;;;;;;;;1027564;28;4378;-55
2023/04/20 01:21:17;;;;;;;;;;;;;;;;;;1029123;28;2802;-58
2023/04/20 01:21:47;;;;;;;;;;;;;;;;;;1027371;28;4263;-54
2023/04/20 01:22:18;;;;;;;;;;;;;;;;;;1027901;28;3085;-55
2023/04/20 01:22:50;;;;;;;;;;;;;;;;;;1027553;28;4063;-57
2023/04/20 01:23:20;;;;;;;;;;;;;;;;;;1031016;28;1838;-56
2023/04/20 01:23:50;;;;;;;;;;;;;;;;;;1025907;28;4079;-55
2023/04/20 01:24:20;;;;;;;;;;;;;;;;;;1028629;28;3219;-53
2023/04/20 01:24:51;;;;;;;;;;;;;;;;;;1026594;28;3782;-50
2023/04/20 01:25:22;;;;;;;;;;;;;;;;;;1030329;28;2963;-57
2023/04/20 01:25:52;;;;;;;;;;;;;;;;;;1026701;28;4027;-51
2023/04/20 01:26:23;;;;;;;;;;;;;;;;;;1029006;28;1769;-57
2023/04/20 01:26:53;;;;;;;;;;;;;;;;;;1027782;28;4064;-52
2023/04/20 01:27:23;;;;;;;;;;;;;;;;;;1029022;28;2932;-54
2023/04/20 01:27:53;;;;;;;;;;;;;;;;;;1030388;28;3798;-52
2023/04/20 01:28:25;;;;;;;;;;;;;;;;;;1029926;28;3154;-53
2023/04/20 01:28:55;;;;;;;;;;;;;;;;;;1029272;28;3795;-56
2023/04/20 01:29:26;;;;;;;;;;;;;;;;;;1029344;28;2955;-55
2023/04/20 01:29:57;;;;;;;;;;;;;;;;;;1030262;28;4285;-56
2023/04/20 01:30:27;;;;;;;;;;;;;;;;;;1029628;28;2752;-50
2023/04/20 01:30:58;;;;;;;;;;;;;;;;;;1030442;28;3941;-54
2023/04/20 01:31:28;;;;;;;;;;;;;;;;;;1029576;28;1898;-54
2023/04/20 01:31:58;;;;;;;;;;;;;;;;;;1027662;28;4057;-56
2023/04/20 01:32:29;;;;;;;;;;;;;;;;;;1030673;28;4337;-54
2023/04/20 01:32:59;;;;;;;;;;;;;;;;;;1028444;28;4110;-51
2023/04/20 01:33:29;;;;;;;;;;;;;;;;;;1026813;28;3601;-55
2023/04/20 01:34:00;;;;;;;;;;;;;;;;;;1028564;28;3829;-55
2023/04/20 01:34:30;;;;;;;;;;;;;;;;;;1026675;28;3000;-53
2023/04/20 01:35:01;;;;;;;;;;;;;;;;;;1028668;28;3890;-52
2023/04/20 01:35:31;;;;;;;;;;;;;;;;;;1027136;28;3798;-56
2023/04/20 01:36:03;;;;;;;;;;;;;;;;;;1026852;28;3189;-56
2023/04/20 01:36:33;;;;;;;;;;;;;;;;;;1026421;28;4055;-57
2023/04/20 01:37:06;;;;;;;;;;;;;;;;;;1029227;28;3221;-57
2023/04/20 01:37:38;;;;;;;;;;;;;;;;;;1027677;28;4033;-56
2023/04/20 01:38:08;;;;;;;;;;;;;;;;;;1026438;28;4646;-55
2023/04/20 01:38:39;;;;;;;;;;;;;;;;;;1027705;28;4012;-56
2023/04/20 01:39:09;;;;;;;;;;;;;;;;;;1030167;28;3038;-55
2023/04/20 01:39:39;;;;;;;;;;;;;;;;;;1029613;28;3789;-54
2023/04/20 01:40:11;;;;;;;;;;;;;;;;;;1027978;28;2952;-56
2023/04/20 01:40:41;;;;;;;;;;;;;;;;;;1029873;28;4225;-54
2023/04/20 01:41:12;;;;;;;;;;;;;;;;;;1029070;28;2930;-54
2023/04/20 01:41:42;;;;;;;;;;;;;;;;;;1030463;28;3876;-52
2023/04/20 01:42:12;;;;;;;;;;;;;;;;;;1027424;28;3002;-51
2023/04/20 01:42:42;;;;;;;;;;;;;;;;;;1029631;28;4034;-53
2023/04/20 01:43:13;;;;;;;;;;;;;;;;;;1029816;28;3441;-57
2023/04/20 01:43:43;;;;;;;;;;;;;;;;;;1028712;28;3867;-55
2023/04/20 01:44:13;;;;;;;;;;;;;;;;;;1030099;28;1692;-54
2023/04/20 01:44:44;;;;;;;;;;;;;;;;;;1030450;28;4146;-56
2023/04/20 01:45:14;;;;;;;;;;;;;;;;;;1028235;28;3605;-57
2023/04/20 01:45:44;;;;;;;;;;;;;;;;;;1029166;28;3884;-55
2023/04/20 01:46:15;;;;;;;;;;;;;;;;;;1032712;28;3333;-56
2023/04/20 01:46:45;;;;;;;;;;;;;;;;;;1027720;28;4045;-56
2023/04/20 01:47:15;;;;;;;;;;;;;;;;;;1027275;28;3252;-52
2023/04/20 01:47:46;;;;;;;;;;;;;;;;;;1029498;28;5367;-56
2023/04/20 01:48:16;;;;;;;;;;;;;;;;;;1028049;28;4958;-54
2023/04/20 01:48:46;;;;;;;;;;;;;;;;;;1027577;28;4086;-53
2023/04/20 01:49:16;;;;;;;;;;;;;;;;;;1029857;28;3462;-58
2023/04/20 01:49:47;;;;;;;;;;;;;;;;;;1025026;28;4076;-55
2023/04/20 01:50:17;;;;;;;;;;;;;;;;;;1025399;28;3195;-53
2023/04/20 01:50:50;;;;;;;;;;;;;;;;;;1024162;28;4014;-52
2023/04/20 01:51:21;;;;;;;;;;;;;;;;;;1022223;28;2818;-53
2023/04/20 01:51:51;;;;;;;;;;;;;;;;;;1024281;28;4143;-55
2023/04/20 01:52:21;;;;;;;;;;;;;;;;;;1024752;28;3308;-53
2023/04/20 01:52:51;;;;;;;;;;;;;;;;;;1024344;28;4163;-51
2023/04/20 01:53:22;;;;;;;;;;;;;;;;;;1028327;28;3484;-56
2023/04/20 01:53:52;;;;;;;;;;;;;;;;;;1028194;28;4000;-53
2023/04/20 01:54:22;;;;;;;;;;;;;;;;;;1031115;28;1598;-51
2023/04/20 01:54:53;;;;;;;;;;;;;;;;;;1030273;28;4049;-55
2023/04/20 01:55:23;;;;;;;;;;;;;;;;;;1027782;28;3485;-50
2023/04/20 01:55:54;;;;;;;;;;;;;;;;;;1030177;28;3871;-56
2023/04/20 01:56:24;;;;;;;;;;;;;;;;;;1029208;28;2826;-54
2023/04/20 01:56:55;;;;;;;;;;;;;;;;;;1028961;28;4043;-52
2023/04/20 01:57:25;;;;;;;;;;;;;;;;;;1027916;28;2982;-54
2023/04/20 01:57:55;;;;;;;;;;;;;;;;;;1027379;28;3789;-51
2023/04/20 01:58:25;;;;;;;;;;;;;;;;;;1027693;28;3285;-53
2023/04/20 01:58:56;;;;;;;;;;;;;;;;;;1029428;28;4078;-53
2023/04/20 01:59:27;;;;;;;;;;;;;;;;;;1026930;28;3220;-53
2023/04/20 01:59:57;;;;;;;;;;;;;;;;;;1028840;28;3760;-51
2023/04/20 02:00:27;;;;;;;;;;;;;;;;;;1026867;28;3581;-53
2023/04/20 02:00:59;;;;;;;;;;;;;;;;;;1033012;28;3708;-58
2023/04/20 02:01:30;;;;;;;;;;;;;;;;;;1029292;28;3028;-52
2023/04/20 02:02:00;;;;;;;;;;;;;;;;;;1029667;28;3960;-52
2023/04/20 02:02:30;;;;;;;;;;;;;;;;;;1030037;28;2928;-58
2023/04/20 02:03:01;;;;;;;;;;;;;;;;;;1030103;28;3611;-55
2023/04/20 02:03:31;;;;;;;;;;;;;;;;;;1028199;28;4206;-55
2023/04/20 02:04:01;;;;;;;;;;;;;;;;;;1027792;28;3354;-52
2023/04/20 02:04:31;;;;;;;;;;;;;;;;;;1029248;28;4030;-52
2023/04/20 02:05:02;;;;;;;;;;;;;;;;;;1029404;28;3225;-55
2023/04/20 02:05:32;;;;;;;;;;;;;;;;;;1031723;28;4026;-58
2023/04/20 02:06:02;;;;;;;;;;;;;;;;;;1030094;28;2692;-55
2023/04/20 02:06:33;;;;;;;;;;;;;;;;;;1030212;28;4050;-57
2023/04/20 02:07:03;;;;;;;;;;;;;;;;;;1028144;28;3098;-53
2023/04/20 02:07:33;;;;;;;;;;;;;;;;;;1031781;28;3853;-56
2023/04/20 02:08:04;;;;;;;;;;;;;;;;;;1030431;28;1951;-55
2023/04/20 02:08:34;;;;;;;;;;;;;;;;;;1029514;28;4579;-52
2023/04/20 02:09:05;;;;;;;;;;;;;;;;;;1030394;28;1869;-53
2023/04/20 02:09:35;;;;;;;;;;;;;;;;;;1031112;28;4059;-59
2023/04/20 02:10:05;;;;;;;;;;;;;;;;;;1030248;28;1809;-58
2023/04/20 02:10:36;;;;;;;;;;;;;;;;;;1029950;28;3907;-55
2023/04/20 02:11:06;;;;;;;;;;;;;;;;;;1029740;28;2978;-57
2023/04/20 02:11:36;;;;;;;;;;;;;;;;;;1030046;28;4071;-51
2023/04/20 02:12:07;;;;;;;;;;;;;;;;;;1028102;28;3112;-54
2023/04/20 02:12:37;;;;;;;;;;;;;;;;;;1031506;28;3876;-54
2023/04/20 02:13:07;;;;;;;;;;;;;;;;;;1030554;28;3319;-52
2023/04/20 02:13:37;;;;;;;;;;;;;;;;;;1030035;28;4091;-54
2023/04/20 02:14:08;;;;;;;;;;;;;;;;;;1029403;28;3106;-50
2023/04/20 02:14:38;;;;;;;;;;;;;;;;;;1031748;28;3784;-59
2023/04/20 02:15:08;;;;;;;;;;;;;;;;;;1030109;28;3094;-57
2023/04/20 02:15:39;;;;;;;;;;;;;;;;;;1029660;28;4028;-53
2023/04/20 02:16:09;;;;;;;;;;;;;;;;;;1031729;28;1867;-54
2023/04/20 02:16:41;;;;;;;;;;;;;;;;;;1029864;28;4046;-55
2023/04/20 02:17:12;;;;;;;;;;;;;;;;;;1032307;28;3235;-52
2023/04/20 02:17:43;;;;;;;;;;;;;;;;;;1029951;28;3931;-55
2023/04/20 02:18:14;;;;;;;;;;;;;;;;;;1031232;28;2967;-51
2023/04/20 02:18:44;;;;;;;;;;;;;;;;;;1029595;28;4250;-52
2023/04/20 02:19:15;;;;;;;;;;;;;;;;;;1030655;28;2847;-55
2023/04/20 02:19:45;;;;;;;;;;;;;;;;;;1030266;28;3927;-55
2023/04/20 02:20:18;;;;;;;;;;;;;;;;;;1033049;28;1763;-56
2023/04/20 02:20:48;;;;;;;;;;;;;;;;;;1030349;28;4125;-57
2023/04/20 02:21:18;;;;;;;;;;;;;;;;;;1030739;28;3087;-53
2023/04/20 02:21:48;;;;;;;;;;;;;;;;;;1028347;28;3893;-53
2023/04/20 02:22:19;;;;;;;;;;;;;;;;;;1031243;28;2988;-56
2023/04/20 02:22:49;;;;;;;;;;;;;;;;;;1029000;28;3804;-56
2023/04/20 02:23:19;;;;;;;;;;;;;;;;;;1031109;28;1694;-55
2023/04/20 02:23:50;;;;;;;;;;;;;;;;;;1030654;28;3909;-50
2023/04/20 02:24:20;;;;;;;;;;;;;;;;;;1030363;28;3117;-56
2023/04/20 02:24:50;;;;;;;;;;;;;;;;;;1029681;28;3911;-51
2023/04/20 02:25:20;;;;;;;;;;;;;;;;;;1028990;28;2927;-52
2023/04/20 02:25:51;;;;;;;;;;;;;;;;;;1029938;28;4050;-53
2023/04/20 02:26:21;;;;;;;;;;;;;;;;;;1029536;28;3716;-49
2023/04/20 02:26:51;;;;;;;;;;;;;;;;;;1029656;28;4102;-55
2023/04/20 02:27:22;;;;;;;;;;;;;;;;;;1029158;28;2957;-54
2023/04/20 02:27:52;;;;;;;;;;;;;;;;;;1031093;28;4056;-54
2023/04/20 02:28:22;;;;;;;;;;;;;;;;;;1028956;28;2899;-57
2023/04/20 02:28:52;;;;;;;;;;;;;;;;;;1030012;28;3872;-58
2023/04/20 02:29:23;;;;;;;;;;;;;;;;;;1030426;28;1845;-56
2023/04/20 02:29:53;;;;;;;;;;;;;;;;;;1029406;28;4043;-55
2023/04/20 02:30:23;;;;;;;;;;;;;;;;;;1027890;28;2968;-54
2023/04/20 02:30:54;;;;;;;;;;;;;;;;;;1030817;28;3986;-53
2023/04/20 02:31:24;;;;;;;;;;;;;;;;;;1030048;28;1828;-55
2023/04/20 02:31:55;;;;;;;;;;;;;;;;;;1028684;28;4004;-58
2023/04/20 02:32:25;;;;;;;;;;;;;;;;;;1028865;28;2875;-53
2023/04/20 02:32:55;;;;;;;;;;;;;;;;;;1030523;28;3854;-55
2023/04/20 02:33:26;;;;;;;;;;;;;;;;;;1029044;28;2861;-58
2023/04/20 02:33:56;;;;;;;;;;;;;;;;;;1028572;28;3990;-56
2023/04/20 02:34:27;;;;;;;;;;;;;;;;;;1029707;28;2850;-55
2023/04/20 02:34:57;;;;;;;;;;;;;;;;;;1030719;28;3708;-55
2023/04/20 02:35:27;;;;;;;;;;;;;;;;;;1029374;28;2867;-56
2023/04/20 02:35:58;;;;;;;;;;;;;;;;;;1028849;28;3762;-55
2023/04/20 02:36:28;;;;;;;;;;;;;;;;;;1028519;28;3076;-55
2023/04/20 02:36:58;;;;;;;;;;;;;;;;;;1030401;28;3738;-50
2023/04/20 02:37:29;;;;;;;;;;;;;;;;;;1030780;28;1999;-56
2023/04/20 02:37:59;;;;;;;;;;;;;;;;;;1030393;28;3977;-57
2023/04/20 02:38:30;;;;;;;;;;;;;;;;;;1028423;28;3135;-53
2023/04/20 02:39:01;;;;;;;;;;;;;;;;;;1030377;28;3745;-54
2023/04/20 02:39:31;;;;;;;;;;;;;;;;;;1030557;28;4043;-55
2023/04/20 02:40:01;;;;;;;;;;;;;;;;;;1031263;28;2959;-55
2023/04/20 02:40:31;;;;;;;;;;;;;;;;;;1028658;28;3777;-57
2023/04/20 02:41:02;;;;;;;;;;;;;;;;;;1028139;28;3046;-58
2023/04/20 02:41:32;;;;;;;;;;;;;;;;;;1030860;28;4232;-51
2023/04/20 02:42:04;;;;;;;;;;;;;;;;;;1030004;28;3114;-58
2023/04/20 02:42:34;;;;;;;;;;;;;;;;;;1028659;28;4054;-49
2023/04/20 02:43:05;;;;;;;;;;;;;;;;;;1029391;28;2901;-59
2023/04/20 02:43:35;;;;;;;;;;;;;;;;;;1028982;28;4239;-53
2023/04/20 02:44:06;;;;;;;;;;;;;;;;;;1030427;28;3174;-55
2023/04/20 02:44:36;;;;;;;;;;;;;;;;;;1029020;28;4123;-56
2023/04/20 02:45:07;;;;;;;;;;;;;;;;;;1029921;28;2960;-53
2023/04/20 02:45:37;;;;;;;;;;;;;;;;;;1029203;28;4111;-54
2023/04/20 02:46:07;;;;;;;;;;;;;;;;;;1030562;28;1791;-59
2023/04/20 02:46:51;;;;;;;;;;;;;;;;;;1036715;27;4223;-54
2023/04/20 02:47:21;;;;;;;;;;;;;;;;;;1030841;28;3130;-55
2023/04/20 02:47:52;;;;;;;;;;;;;;;;;;1034059;28;4072;-56
2023/04/20 02:48:22;;;;;;;;;;;;;;;;;;1033525;28;2888;-53
2023/04/20 02:48:54;;;;;;;;;;;;;;;;;;1032819;28;3906;-49
2023/04/20 02:49:24;;;;;;;;;;;;;;;;;;1032675;28;3103;-51
2023/04/20 02:49:54;;;;;;;;;;;;;;;;;;1033143;28;3821;-52
2023/04/20 02:50:25;;;;;;;;;;;;;;;;;;1033110;28;3022;-50
2023/04/20 02:50:56;;;;;;;;;;;;;;;;;;1036887;28;3837;-52
2023/04/20 02:51:26;;;;;;;;;;;;;;;;;;1037351;28;2965;-53
2023/04/20 02:51:56;;;;;;;;;;;;;;;;;;1037923;28;4184;-54
2023/04/20 02:52:26;;;;;;;;;;;;;;;;;;1037566;28;3133;-55
2023/04/20 02:52:57;;;;;;;;;;;;;;;;;;1038110;28;3838;-51
2023/04/20 02:53:27;;;;;;;;;;;;;;;;;;1037332;28;3045;-54
2023/04/20 02:53:57;;;;;;;;;;;;;;;;;;1034362;28;3895;-48
2023/04/20 02:54:28;;;;;;;;;;;;;;;;;;1036444;28;2923;-52
2023/04/20 02:54:58;;;;;;;;;;;;;;;;;;1037532;28;3787;-51
2023/04/20 02:55:28;;;;;;;;;;;;;;;;;;1034061;28;2977;-51
2023/04/20 02:55:59;;;;;;;;;;;;;;;;;;1034344;28;3854;-57
2023/04/20 02:56:29;;;;;;;;;;;;;;;;;;1037588;28;3076;-53
2023/04/20 02:57:00;;;;;;;;;;;;;;;;;;1037287;28;3803;-47
2023/04/20 02:57:30;;;;;;;;;;;;;;;;;;1035795;28;3028;-56
2023/04/20 02:58:01;;;;;;;;;;;;;;;;;;1036042;28;3594;-49
2023/04/20 02:58:31;;;;;;;;;;;;;;;;;;1037508;28;4075;-54
2023/04/20 02:59:02;;;;;;;;;;;;;;;;;;1034988;28;3021;-52
2023/04/20 02:59:32;;;;;;;;;;;;;;;;;;1030509;28;4018;-47
2023/04/20 03:00:03;;;;;;;;;;;;;;;;;;1037902;28;2664;-51
2023/04/20 03:00:33;;;;;;;;;;;;;;;;;;1036635;28;4271;-51
2023/04/20 03:01:04;;;;;;;;;;;;;;;;;;1037061;28;2864;-52
2023/04/20 03:01:34;;;;;;;;;;;;;;;;;;1033362;28;4012;-51
2023/04/20 03:02:04;;;;;;;;;;;;;;;;;;1036997;28;2822;-52
2023/04/20 03:02:35;;;;;;;;;;;;;;;;;;1036899;28;4060;-52
2023/04/20 03:03:06;;;;;;;;;;;;;;;;;;1037230;28;2936;-56
2023/04/20 03:03:36;;;;;;;;;;;;;;;;;;1036100;28;4119;-54
2023/04/20 03:04:06;;;;;;;;;;;;;;;;;;1037076;28;3626;-55
2023/04/20 03:04:36;;;;;;;;;;;;;;;;;;1035888;28;4449;-54
2023/04/20 03:05:07;;;;;;;;;;;;;;;;;;1037537;28;3269;-55
2023/04/20 03:05:37;;;;;;;;;;;;;;;;;;1035698;28;4139;-52
2023/04/20 03:06:08;;;;;;;;;;;;;;;;;;1037604;28;3181;-58
2023/04/20 03:06:39;;;;;;;;;;;;;;;;;;1033824;28;4110;-53
2023/04/20 03:07:09;;;;;;;;;;;;;;;;;;1037120;28;3096;-57
2023/04/20 03:07:40;;;;;;;;;;;;;;;;;;1038235;28;3976;-57
2023/04/20 03:08:10;;;;;;;;;;;;;;;;;;1037278;28;2928;-51
2023/04/20 03:08:40;;;;;;;;;;;;;;;;;;1037962;28;4147;-58
2023/04/20 03:09:11;;;;;;;;;;;;;;;;;;1037357;28;1986;-52
2023/04/20 03:09:41;;;;;;;;;;;;;;;;;;1037019;28;4058;-54
2023/04/20 03:10:11;;;;;;;;;;;;;;;;;;1035876;28;3254;-55
2023/04/20 03:10:42;;;;;;;;;;;;;;;;;;1037644;28;4146;-56
2023/04/20 03:11:12;;;;;;;;;;;;;;;;;;1035673;28;2982;-53
2023/04/20 03:11:42;;;;;;;;;;;;;;;;;;1035700;28;4231;-54
2023/04/20 03:12:13;;;;;;;;;;;;;;;;;;1037279;28;2213;-55
2023/04/20 03:12:43;;;;;;;;;;;;;;;;;;1035627;28;4062;-56
2023/04/20 03:13:13;;;;;;;;;;;;;;;;;;1037290;28;2845;-54
2023/04/20 03:13:44;;;;;;;;;;;;;;;;;;1036456;28;3911;-52
2023/04/20 03:14:14;;;;;;;;;;;;;;;;;;1037893;28;2870;-54
2023/04/20 03:14:44;;;;;;;;;;;;;;;;;;1035655;28;4256;-56
2023/04/20 03:15:15;;;;;;;;;;;;;;;;;;1035507;28;3204;-54
2023/04/20 03:15:46;;;;;;;;;;;;;;;;;;1035493;28;5292;-57
2023/04/20 03:16:16;;;;;;;;;;;;;;;;;;1036991;28;2904;-55
2023/04/20 03:16:47;;;;;;;;;;;;;;;;;;1034488;28;4114;-52
2023/04/20 03:17:17;;;;;;;;;;;;;;;;;;1032220;28;2891;-58
2023/04/20 03:17:47;;;;;;;;;;;;;;;;;;1034605;28;4157;-55
2023/04/20 03:18:18;;;;;;;;;;;;;;;;;;1037627;28;3226;-52
2023/04/20 03:18:48;;;;;;;;;;;;;;;;;;1037163;28;4034;-54
2023/04/20 03:19:18;;;;;;;;;;;;;;;;;;1037537;28;2936;-55
2023/04/20 03:19:50;;;;;;;;;;;;;;;;;;1034988;28;3979;-56
2023/04/20 03:20:20;;;;;;;;;;;;;;;;;;1038056;28;3042;-55
2023/04/20 03:20:51;;;;;;;;;;;;;;;;;;1035760;28;4136;-57
2023/04/20 03:21:21;;;;;;;;;;;;;;;;;;1036490;28;3055;-56
2023/04/20 03:21:52;;;;;;;;;;;;;;;;;;1031395;28;3879;-54
2023/04/20 03:22:22;;;;;;;;;;;;;;;;;;1036981;28;2955;-51
2023/04/20 03:22:52;;;;;;;;;;;;;;;;;;1035950;28;4114;-50
2023/04/20 03:23:23;;;;;;;;;;;;;;;;;;1037798;28;1690;-51
2023/04/20 03:23:53;;;;;;;;;;;;;;;;;;1034156;28;4044;-51
2023/04/20 03:24:23;;;;;;;;;;;;;;;;;;1036295;28;3054;-53
2023/04/20 03:24:53;;;;;;;;;;;;;;;;;;1036841;28;3882;-51
2023/04/20 03:25:24;;;;;;;;;;;;;;;;;;1033091;28;2843;-52
2023/04/20 03:25:54;;;;;;;;;;;;;;;;;;1032441;28;3968;-54
2023/04/20 03:26:25;;;;;;;;;;;;;;;;;;1034065;28;1926;-54
2023/04/20 03:26:55;;;;;;;;;;;;;;;;;;1031859;28;4030;-53
2023/04/20 03:27:26;;;;;;;;;;;;;;;;;;1033453;28;2947;-55
2023/04/20 03:27:56;;;;;;;;;;;;;;;;;;1030954;28;4090;-50
2023/04/20 03:28:26;;;;;;;;;;;;;;;;;;1034922;28;3239;-52
2023/04/20 03:28:57;;;;;;;;;;;;;;;;;;1033223;28;4024;-51
2023/04/20 03:29:27;;;;;;;;;;;;;;;;;;1034135;28;1633;-50
2023/04/20 03:29:57;;;;;;;;;;;;;;;;;;1030197;28;5459;-56
2023/04/20 03:30:28;;;;;;;;;;;;;;;;;;1033500;28;2999;-50
2023/04/20 03:30:59;;;;;;;;;;;;;;;;;;1033232;28;3798;-54
2023/04/20 03:31:30;;;;;;;;;;;;;;;;;;1032148;28;3040;-52
2023/04/20 03:32:00;;;;;;;;;;;;;;;;;;1033138;28;3888;-57
2023/04/20 03:32:30;;;;;;;;;;;;;;;;;;1034107;28;1578;-51
2023/04/20 03:33:00;;;;;;;;;;;;;;;;;;1033409;28;3975;-57